Time;durP1;ratioP1;P1;durP2;ratioP2;P2;SDS_P1;SDS_P2;PMS_P1;PMS_P2;Temp;Humidity;BMP_temperature;BMP_pressure;BME280_temperature;BME280_humidity;BME280_pressure;Samples;Min_cycle;Max_cycle;Signal;HPM_P1;HPM_P2
2023/09/14 00:01:46;;;;;;;;;;;16.70;99.90;;;;;;5030384;28;19909;-74
2023/09/14 00:04:12;;;;;;;;;;;16.70;99.90;;;;;;5018270;28;20344;-74
2023/09/14 00:06:37;;;;;;;;;;;16.70;99.90;;;;;;5018710;28;19905;-74
2023/09/14 00:09:03;;;;;;;;;;;16.80;99.90;;;;;;5019159;28;19912;-74
2023/09/14 00:11:28;;;;;;;;;;;16.80;99.90;;;;;;5029797;28;20435;-74
2023/09/14 00:13:54;;;;;;;;;;;16.80;99.90;;;;;;5018162;28;19944;-73
2023/09/14 00:16:19;;;;;;;;;;;16.80;99.90;;;;;;5019583;28;20373;-74
2023/09/14 00:18:45;;;;;;;;;;;16.70;99.90;;;;;;5020150;28;20288;-74
2023/09/14 00:21:10;;;;;;;;;;;16.70;99.90;;;;;;5020183;28;19910;-74
2023/09/14 00:23:36;;;;;;;;;;;16.70;99.90;;;;;;5020392;28;19909;-74
2023/09/14 00:26:02;;;;;;;;;;;16.70;99.90;;;;;;5020142;28;20380;-74
2023/09/14 00:28:28;;;;;;;;;;;16.70;99.90;;;;;;5019264;28;19909;-74
2023/09/14 00:30:53;;;;;;;;;;;16.70;99.90;;;;;;5019386;28;19912;-74
2023/09/14 00:33:20;;;;;;;;;;;16.70;99.90;;;;;;5019351;28;19905;-73
2023/09/14 00:35:46;;;;;;;;;;;16.60;99.90;;;;;;5019346;28;19921;-73
2023/09/14 00:38:11;;;;;;;;;;;16.60;99.90;;;;;;5030819;28;20024;-73
2023/09/14 00:40:38;;;;;;;;;;;16.50;99.90;;;;;;5017925;28;19999;-73
2023/09/14 00:43:03;;;;;;;;;;;16.50;99.90;;;;;;5020170;28;19913;-73
2023/09/14 00:45:29;;;;;;;;;;;16.50;99.90;;;;;;5039156;28;19905;-73
2023/09/14 00:47:58;;;;;;;;;;;16.50;99.90;;;;;;5022140;28;19909;-73
2023/09/14 00:50:25;;;;;;;;;;;16.50;99.90;;;;;;5034255;28;19913;-74
2023/09/14 00:52:56;;;;;;;;;;;16.50;99.90;;;;;;5023783;28;19973;-74
2023/09/14 00:55:22;;;;;;;;;;;16.40;99.90;;;;;;5035160;28;19995;-74
2023/09/14 00:57:48;;;;;;;;;;;16.40;99.90;;;;;;5035607;28;19959;-73
2023/09/14 01:00:16;;;;;;;;;;;16.40;99.90;;;;;;5034855;28;19904;-74
2023/09/14 01:02:42;;;;;;;;;;;16.40;99.90;;;;;;5034467;28;20019;-74
2023/09/14 01:05:07;;;;;;;;;;;16.40;99.90;;;;;;5033762;28;20368;-74
2023/09/14 01:07:33;;;;;;;;;;;16.40;99.90;;;;;;5035335;28;19949;-74
2023/09/14 01:09:59;;;;;;;;;;;16.30;99.90;;;;;;5033823;28;19960;-74
2023/09/14 01:12:25;;;;;;;;;;;16.20;99.90;;;;;;5035225;28;19909;-73
2023/09/14 01:15:00;;;;;;;;;;;16.20;99.90;;;;;;5034182;28;19912;-74
2023/09/14 01:17:46;;;;;;;;;;;16.20;99.90;;;;;;5034266;28;19905;-72
2023/09/14 01:20:14;;;;;;;;;;;16.20;99.90;;;;;;5034402;28;19909;-72
2023/09/14 01:22:56;;;;;;;;;;;16.20;99.90;;;;;;5034321;28;19912;-72
2023/09/14 01:25:37;;;;;;;;;;;16.10;99.90;;;;;;5035191;28;20369;-72
2023/09/14 01:28:06;;;;;;;;;;;16.10;99.90;;;;;;5033502;28;20021;-74
2023/09/14 01:30:31;;;;;;;;;;;16.10;99.90;;;;;;5035103;28;19911;-72
2023/09/14 01:32:58;;;;;;;;;;;16.20;99.90;;;;;;5049099;28;19944;-72
2023/09/14 01:35:25;;;;;;;;;;;16.20;99.90;;;;;;5033048;28;19905;-72
2023/09/14 01:37:52;;;;;;;;;;;16.20;99.90;;;;;;5031907;28;19933;-72
2023/09/14 01:40:17;;;;;;;;;;;16.20;99.90;;;;;;5016830;28;20427;-72
2023/09/14 01:42:43;;;;;;;;;;;16.20;99.90;;;;;;5016683;28;20328;-73
2023/09/14 01:45:09;;;;;;;;;;;16.10;99.90;;;;;;5026575;28;20567;-72
2023/09/14 01:47:35;;;;;;;;;;;16.10;99.90;;;;;;5016615;28;19952;-74
2023/09/14 01:50:00;;;;;;;;;;;16.10;99.90;;;;;;5025474;28;19916;-74
2023/09/14 01:52:26;;;;;;;;;;;16.00;99.90;;;;;;5020521;28;19905;-72
2023/09/14 01:54:52;;;;;;;;;;;16.00;99.90;;;;;;5016820;28;19905;-74
2023/09/14 01:57:17;;;;;;;;;;;15.90;99.90;;;;;;5016613;28;19944;-74
2023/09/14 01:59:43;;;;;;;;;;;15.90;99.90;;;;;;5016956;28;19951;-73
2023/09/14 02:02:08;;;;;;;;;;;15.80;99.90;;;;;;5028815;28;20404;-74
2023/09/14 02:04:34;;;;;;;;;;;15.80;99.90;;;;;;5017048;28;19928;-74
2023/09/14 02:06:59;;;;;;;;;;;15.80;99.90;;;;;;5017966;28;19953;-74
2023/09/14 02:09:25;;;;;;;;;;;15.80;99.90;;;;;;5017470;28;19913;-74
2023/09/14 02:11:50;;;;;;;;;;;15.70;99.90;;;;;;5028974;28;19913;-75
2023/09/14 02:14:16;;;;;;;;;;;15.70;99.90;;;;;;5017148;28;19969;-75
2023/09/14 02:16:42;;;;;;;;;;;15.70;99.90;;;;;;5028708;28;19909;-75
2023/09/14 02:19:07;;;;;;;;;;;15.70;99.90;;;;;;5028652;28;19905;-75
2023/09/14 02:21:33;;;;;;;;;;;15.70;99.90;;;;;;5022145;28;19912;-75
2023/09/14 02:23:58;;;;;;;;;;;15.60;99.90;;;;;;5033683;28;19935;-74
2023/09/14 02:26:24;;;;;;;;;;;15.60;99.90;;;;;;5031031;28;19970;-75
2023/09/14 02:28:49;;;;;;;;;;;15.70;99.90;;;;;;5026165;28;19912;-75
2023/09/14 02:31:15;;;;;;;;;;;15.60;99.90;;;;;;5023046;28;19928;-74
2023/09/14 02:33:40;;;;;;;;;;;15.60;99.90;;;;;;5026035;28;20348;-75
2023/09/14 02:36:06;;;;;;;;;;;15.60;99.90;;;;;;5034019;28;20388;-75
2023/09/14 02:38:32;;;;;;;;;;;15.60;99.90;;;;;;5034834;28;19931;-75
2023/09/14 02:40:57;;;;;;;;;;;15.50;99.90;;;;;;5034174;28;19935;-75
2023/09/14 02:43:23;;;;;;;;;;;15.60;99.90;;;;;;5032854;28;19952;-74
2023/09/14 02:45:48;;;;;;;;;;;15.60;99.90;;;;;;5033658;28;19908;-75
2023/09/14 02:48:14;;;;;;;;;;;15.60;99.90;;;;;;5038349;28;19970;-74
2023/09/14 02:50:39;;;;;;;;;;;15.50;99.90;;;;;;5036877;28;19905;-75
2023/09/14 02:53:04;;;;;;;;;;;15.50;99.90;;;;;;5030929;28;19984;-75
2023/09/14 02:55:33;;;;;;;;;;;15.50;99.90;;;;;;5028986;28;19909;-74
2023/09/14 02:57:58;;;;;;;;;;;15.50;99.90;;;;;;5024746;28;20370;-74
2023/09/14 03:00:24;;;;;;;;;;;15.50;99.90;;;;;;5028600;28;20293;-74
2023/09/14 03:02:49;;;;;;;;;;;15.50;99.90;;;;;;5024293;28;19906;-75
2023/09/14 03:05:15;;;;;;;;;;;15.50;99.90;;;;;;5028358;28;19905;-74
2023/09/14 03:07:40;;;;;;;;;;;15.50;99.90;;;;;;5023761;28;19913;-74
2023/09/14 03:10:06;;;;;;;;;;;15.40;99.90;;;;;;5027878;28;19905;-74
2023/09/14 03:12:32;;;;;;;;;;;15.40;99.90;;;;;;5030461;28;19909;-74
2023/09/14 03:14:57;;;;;;;;;;;15.40;99.90;;;;;;5035033;28;19909;-74
2023/09/14 03:17:23;;;;;;;;;;;15.40;99.90;;;;;;5023084;28;19912;-75
2023/09/14 03:19:48;;;;;;;;;;;15.30;99.90;;;;;;5034486;28;19996;-75
2023/09/14 03:22:14;;;;;;;;;;;15.30;99.90;;;;;;5022946;28;19947;-74
2023/09/14 03:24:40;;;;;;;;;;;15.30;99.90;;;;;;5025810;28;19971;-74
2023/09/14 03:27:05;;;;;;;;;;;15.30;99.90;;;;;;5029913;28;20004;-74
2023/09/14 03:29:31;;;;;;;;;;;15.30;99.90;;;;;;5027224;28;19935;-74
2023/09/14 03:31:56;;;;;;;;;;;15.30;99.90;;;;;;5022714;28;19906;-74
2023/09/14 03:34:22;;;;;;;;;;;15.30;99.90;;;;;;5026387;28;19905;-74
2023/09/14 03:36:47;;;;;;;;;;;15.30;99.90;;;;;;5028659;28;19921;-74
2023/09/14 03:39:13;;;;;;;;;;;15.30;99.90;;;;;;5027863;28;20008;-74
2023/09/14 03:41:39;;;;;;;;;;;15.30;99.90;;;;;;5022797;28;20388;-74
2023/09/14 03:44:04;;;;;;;;;;;15.30;99.90;;;;;;5032010;28;19949;-74
2023/09/14 03:46:30;;;;;;;;;;;15.30;99.90;;;;;;5022621;28;20191;-74
2023/09/14 03:48:55;;;;;;;;;;;15.30;99.90;;;;;;5034142;28;19905;-72
2023/09/14 03:51:21;;;;;;;;;;;15.20;99.90;;;;;;5022651;28;19905;-74
2023/09/14 03:53:46;;;;;;;;;;;15.20;99.90;;;;;;5026993;28;19905;-74
2023/09/14 03:56:12;;;;;;;;;;;15.20;99.90;;;;;;5022705;28;19912;-74
2023/09/14 03:58:37;;;;;;;;;;;15.20;99.90;;;;;;5026311;28;19976;-74
2023/09/14 04:01:03;;;;;;;;;;;15.20;99.90;;;;;;5021236;28;20340;-74
2023/09/14 04:03:29;;;;;;;;;;;15.40;99.90;;;;;;5026671;28;20385;-74
2023/09/14 04:05:55;;;;;;;;;;;15.50;99.90;;;;;;5022161;28;19912;-74
2023/09/14 04:08:22;;;;;;;;;;;15.60;99.90;;;;;;5033846;28;19920;-74
2023/09/14 04:10:50;;;;;;;;;;;15.60;99.90;;;;;;5022247;28;19905;-75
2023/09/14 04:13:29;;;;;;;;;;;15.70;99.90;;;;;;5025910;28;19948;-74
2023/09/14 04:15:55;;;;;;;;;;;15.80;99.90;;;;;;5030693;28;19924;-74
2023/09/14 04:18:21;;;;;;;;;;;15.90;99.90;;;;;;5025035;28;20349;-74
2023/09/14 04:20:47;;;;;;;;;;;15.90;99.90;;;;;;5022973;28;20014;-74
2023/09/14 04:23:13;;;;;;;;;;;16.00;99.90;;;;;;5024333;28;19912;-74
2023/09/14 04:25:44;;;;;;;;;;;16.00;99.90;;;;;;5022866;28;20436;-74
2023/09/14 04:28:17;;;;;;;;;;;16.00;99.90;;;;;;5021916;28;20012;-74
2023/09/14 04:30:43;;;;;;;;;;;16.00;99.90;;;;;;5023909;28;19964;-74
2023/09/14 04:33:10;;;;;;;;;;;15.90;99.90;;;;;;5022449;28;20336;-75
2023/09/14 04:35:36;;;;;;;;;;;15.80;99.90;;;;;;5031644;28;19931;-74
2023/09/14 04:38:01;;;;;;;;;;;15.80;99.90;;;;;;5031663;28;19905;-74
2023/09/14 04:40:27;;;;;;;;;;;15.70;99.90;;;;;;5031751;28;19913;-74
2023/09/14 04:42:52;;;;;;;;;;;15.60;99.90;;;;;;5024076;28;19905;-74
2023/09/14 04:45:18;;;;;;;;;;;15.70;99.90;;;;;;5027699;28;19914;-74
2023/09/14 04:47:43;;;;;;;;;;;15.70;99.90;;;;;;5022984;28;19909;-74
2023/09/14 04:50:09;;;;;;;;;;;15.70;99.90;;;;;;5022878;28;19913;-74
2023/09/14 04:52:34;;;;;;;;;;;15.80;99.90;;;;;;5023314;28;19909;-74
2023/09/14 04:55:00;;;;;;;;;;;15.70;99.90;;;;;;5023074;28;19920;-74
2023/09/14 04:57:25;;;;;;;;;;;15.70;99.90;;;;;;5023311;28;19916;-75
2023/09/14 04:59:51;;;;;;;;;;;15.80;99.90;;;;;;5030650;28;19915;-74
2023/09/14 05:02:16;;;;;;;;;;;15.80;99.90;;;;;;5022428;28;19913;-74
2023/09/14 05:04:42;;;;;;;;;;;15.80;99.90;;;;;;5030480;28;19912;-74
2023/09/14 05:07:07;;;;;;;;;;;15.80;99.90;;;;;;5024105;28;19909;-74
2023/09/14 05:09:33;;;;;;;;;;;15.80;99.90;;;;;;5022546;28;19992;-74
2023/09/14 05:11:59;;;;;;;;;;;15.80;99.90;;;;;;5024727;28;19992;-74
2023/09/14 05:14:24;;;;;;;;;;;15.80;99.90;;;;;;5023309;28;19953;-74
2023/09/14 05:16:50;;;;;;;;;;;15.80;99.90;;;;;;5024728;28;19971;-74
2023/09/14 05:19:15;;;;;;;;;;;15.80;99.90;;;;;;5023006;28;19909;-74
2023/09/14 05:21:41;;;;;;;;;;;15.80;99.90;;;;;;5024737;28;19914;-74
2023/09/14 05:24:06;;;;;;;;;;;15.80;99.90;;;;;;5022617;28;19971;-75
2023/09/14 05:26:32;;;;;;;;;;;15.80;99.90;;;;;;5024799;28;19972;-74
2023/09/14 05:28:58;;;;;;;;;;;15.80;99.90;;;;;;5022216;28;19932;-74
2023/09/14 05:31:23;;;;;;;;;;;15.80;99.90;;;;;;5023153;28;19912;-74
2023/09/14 05:33:49;;;;;;;;;;;15.80;99.90;;;;;;5029409;28;19909;-74
2023/09/14 05:36:14;;;;;;;;;;;15.80;99.90;;;;;;5027434;28;19917;-74
2023/09/14 05:38:41;;;;;;;;;;;15.80;99.90;;;;;;5026243;28;19912;-74
2023/09/14 05:41:06;;;;;;;;;;;15.80;99.90;;;;;;5023510;28;19912;-74
2023/09/14 05:43:32;;;;;;;;;;;15.80;99.90;;;;;;5026744;28;19975;-74
2023/09/14 05:45:57;;;;;;;;;;;15.80;99.90;;;;;;5023559;28;20336;-74
2023/09/14 05:48:23;;;;;;;;;;;15.80;99.90;;;;;;5029166;28;19913;-74
2023/09/14 05:50:48;;;;;;;;;;;15.80;99.90;;;;;;5023039;28;19913;-74
2023/09/14 05:53:14;;;;;;;;;;;15.80;99.90;;;;;;5022108;28;19959;-74
2023/09/14 05:55:39;;;;;;;;;;;15.90;99.90;;;;;;5023070;28;19906;-74
2023/09/14 05:58:05;;;;;;;;;;;15.90;99.90;;;;;;5021411;28;19910;-74
2023/09/14 06:00:30;;;;;;;;;;;16.00;99.90;;;;;;5023118;28;19909;-74
2023/09/14 06:02:56;;;;;;;;;;;16.10;99.90;;;;;;5028975;28;19952;-74
2023/09/14 06:05:21;;;;;;;;;;;16.10;99.90;;;;;;5023442;28;19905;-74
2023/09/14 06:07:47;;;;;;;;;;;16.20;99.90;;;;;;5021656;28;19920;-74
2023/09/14 06:10:13;;;;;;;;;;;16.30;99.90;;;;;;5034581;28;19919;-74
2023/09/14 06:12:38;;;;;;;;;;;16.30;99.90;;;;;;5029766;28;19916;-74
2023/09/14 06:15:04;;;;;;;;;;;16.40;99.90;;;;;;5021576;28;19912;-74
2023/09/14 06:17:30;;;;;;;;;;;16.40;99.90;;;;;;5033834;28;20369;-74
2023/09/14 06:19:55;;;;;;;;;;;16.40;99.90;;;;;;5030399;28;19905;-74
2023/09/14 06:22:21;;;;;;;;;;;16.50;99.90;;;;;;5030387;28;19967;-74
2023/09/14 06:24:47;;;;;;;;;;;16.60;99.90;;;;;;5025843;28;19941;-74
2023/09/14 06:27:13;;;;;;;;;;;16.60;99.90;;;;;;5031203;28;20679;-74
2023/09/14 06:29:38;;;;;;;;;;;16.70;99.90;;;;;;5039015;28;19919;-74
2023/09/14 06:32:04;;;;;;;;;;;16.70;99.90;;;;;;5039317;28;19916;-74
2023/09/14 06:34:30;;;;;;;;;;;16.80;99.90;;;;;;5038903;28;20388;-74
2023/09/14 06:36:55;;;;;;;;;;;16.80;99.90;;;;;;5032292;28;20012;-74
2023/09/14 06:39:21;;;;;;;;;;;16.90;99.90;;;;;;5023669;28;19952;-75
2023/09/14 06:41:47;;;;;;;;;;;17.00;99.90;;;;;;5023938;28;19948;-75
2023/09/14 06:44:18;;;;;;;;;;;17.00;99.90;;;;;;5033138;28;19951;-74
2023/09/14 06:46:45;;;;;;;;;;;17.10;99.90;;;;;;5034055;28;19909;-74
2023/09/14 06:49:10;;;;;;;;;;;17.10;99.90;;;;;;5030002;28;19909;-74
2023/09/14 06:51:36;;;;;;;;;;;17.20;99.90;;;;;;5037911;28;19940;-74
2023/09/14 06:54:02;;;;;;;;;;;17.30;99.90;;;;;;5037922;28;19905;-74
2023/09/14 06:56:28;;;;;;;;;;;17.40;99.90;;;;;;5037621;28;19905;-75
2023/09/14 06:58:53;;;;;;;;;;;17.50;99.90;;;;;;5036415;28;20001;-74
2023/09/14 07:01:20;;;;;;;;;;;17.50;99.90;;;;;;5037888;28;19905;-73
2023/09/14 07:03:45;;;;;;;;;;;17.60;99.90;;;;;;5037546;28;19998;-74
2023/09/14 07:06:11;;;;;;;;;;;17.70;99.90;;;;;;5037573;28;19917;-74
2023/09/14 07:08:40;;;;;;;;;;;17.80;99.90;;;;;;5037170;28;19909;-74
2023/09/14 07:11:06;;;;;;;;;;;17.90;99.90;;;;;;5036453;28;19909;-74
2023/09/14 07:13:31;;;;;;;;;;;17.90;99.90;;;;;;5037343;28;19977;-74
2023/09/14 07:15:57;;;;;;;;;;;18.00;99.90;;;;;;5037684;28;19980;-74
2023/09/14 07:18:26;;;;;;;;;;;18.10;99.90;;;;;;5036650;28;19966;-74
2023/09/14 07:20:52;;;;;;;;;;;18.20;99.90;;;;;;5036519;28;19911;-74
2023/09/14 07:23:18;;;;;;;;;;;18.30;99.90;;;;;;5037603;28;19953;-74
2023/09/14 07:25:44;;;;;;;;;;;18.40;99.90;;;;;;5037318;28;20172;-73
2023/09/14 07:28:10;;;;;;;;;;;18.50;99.90;;;;;;5034042;28;19909;-74
2023/09/14 07:30:35;;;;;;;;;;;18.50;99.90;;;;;;5035771;28;19959;-74
2023/09/14 07:33:01;;;;;;;;;;;18.60;99.90;;;;;;5033859;28;19913;-75
2023/09/14 07:35:27;;;;;;;;;;;18.60;99.90;;;;;;5030945;28;19916;-74
2023/09/14 07:37:52;;;;;;;;;;;18.70;99.90;;;;;;5036139;28;19909;-74
2023/09/14 07:40:18;;;;;;;;;;;18.80;99.90;;;;;;5036916;28;20242;-74
2023/09/14 07:42:43;;;;;;;;;;;18.80;99.90;;;;;;5036981;28;19955;-74
2023/09/14 07:45:09;;;;;;;;;;;18.90;99.90;;;;;;5035089;28;19906;-74
2023/09/14 07:47:34;;;;;;;;;;;19.00;99.90;;;;;;5036175;28;19909;-74
2023/09/14 07:50:00;;;;;;;;;;;19.00;99.90;;;;;;5036645;28;19909;-74
2023/09/14 07:52:25;;;;;;;;;;;19.10;99.90;;;;;;5036948;28;19916;-75
2023/09/14 07:54:51;;;;;;;;;;;19.20;99.90;;;;;;5035585;28;20831;-74
2023/09/14 07:57:17;;;;;;;;;;;19.30;99.90;;;;;;5034589;28;20373;-75
2023/09/14 07:59:42;;;;;;;;;;;19.20;99.90;;;;;;5034550;28;19970;-75
2023/09/14 08:02:08;;;;;;;;;;;19.40;99.90;;;;;;5035081;28;19987;-75
2023/09/14 08:04:33;;;;;;;;;;;19.50;99.90;;;;;;5032449;28;19952;-75
2023/09/14 08:06:59;;;;;;;;;;;19.60;99.90;;;;;;5031120;28;19920;-76
2023/09/14 08:09:25;;;;;;;;;;;19.80;99.90;;;;;;5035527;28;20403;-74
2023/09/14 08:11:50;;;;;;;;;;;19.80;99.90;;;;;;5035081;28;20284;-75
2023/09/14 08:14:16;;;;;;;;;;;19.90;99.90;;;;;;5036414;28;20707;-75
2023/09/14 08:16:41;;;;;;;;;;;19.90;99.90;;;;;;5033338;28;20333;-75
2023/09/14 08:19:07;;;;;;;;;;;19.90;99.90;;;;;;5019101;28;19913;-75
2023/09/14 08:21:33;;;;;;;;;;;20.00;99.90;;;;;;5028723;28;19924;-75
2023/09/14 08:23:58;;;;;;;;;;;20.30;99.90;;;;;;5033546;28;19908;-75
2023/09/14 08:26:24;;;;;;;;;;;20.40;99.90;;;;;;5029555;28;19951;-74
2023/09/14 08:28:51;;;;;;;;;;;20.40;99.90;;;;;;5029881;28;19956;-76
2023/09/14 08:31:16;;;;;;;;;;;20.50;99.90;;;;;;5026068;28;19944;-76
2023/09/14 08:33:42;;;;;;;;;;;20.60;99.90;;;;;;5032577;28;19909;-75
2023/09/14 08:36:07;;;;;;;;;;;20.80;99.90;;;;;;5030521;28;20008;-76
2023/09/14 08:38:33;;;;;;;;;;;20.90;99.90;;;;;;5030395;28;19996;-76
2023/09/14 08:41:00;;;;;;;;;;;20.90;99.90;;;;;;5034638;28;19919;-76
2023/09/14 08:43:27;;;;;;;;;;;21.00;99.90;;;;;;5027084;28;19906;-76
2023/09/14 08:45:53;;;;;;;;;;;21.10;99.90;;;;;;5038511;28;19913;-76
2023/09/14 08:48:21;;;;;;;;;;;21.20;99.90;;;;;;5028404;28;20055;-75
2023/09/14 08:50:47;;;;;;;;;;;21.20;99.90;;;;;;5024880;28;20004;-75
2023/09/14 08:53:14;;;;;;;;;;;21.30;99.90;;;;;;5030411;28;19945;-75
2023/09/14 08:55:40;;;;;;;;;;;21.30;99.90;;;;;;5023153;28;20008;-76
2023/09/14 08:58:05;;;;;;;;;;;21.50;99.90;;;;;;5017775;28;19995;-76
2023/09/14 09:00:31;;;;;;;;;;;21.60;99.90;;;;;;5018932;28;19914;-74
2023/09/14 09:02:57;;;;;;;;;;;21.80;99.90;;;;;;5026451;28;20373;-74
2023/09/14 09:05:26;;;;;;;;;;;21.90;99.90;;;;;;5030843;28;19912;-75
2023/09/14 09:07:54;;;;;;;;;;;22.00;99.90;;;;;;5029945;28;19995;-74
2023/09/14 09:10:21;;;;;;;;;;;22.10;99.90;;;;;;5030792;28;20337;-74
2023/09/14 09:12:49;;;;;;;;;;;22.10;99.90;;;;;;5030306;28;19916;-75
2023/09/14 09:15:15;;;;;;;;;;;22.00;99.90;;;;;;5031194;28;19905;-76
2023/09/14 09:17:41;;;;;;;;;;;22.10;99.90;;;;;;5031417;28;19943;-76
2023/09/14 09:20:19;;;;;;;;;;;22.20;99.90;;;;;;5036007;28;19948;-75
2023/09/14 09:22:45;;;;;;;;;;;22.30;99.90;;;;;;5032158;28;19955;-75
2023/09/14 09:25:11;;;;;;;;;;;22.40;99.90;;;;;;5028842;28;20329;-75
2023/09/14 09:27:39;;;;;;;;;;;22.40;99.90;;;;;;5032491;28;20743;-75
2023/09/14 09:30:05;;;;;;;;;;;22.50;99.90;;;;;;5028264;28;19910;-76
2023/09/14 09:32:31;;;;;;;;;;;22.60;99.90;;;;;;5032385;28;19913;-76
2023/09/14 09:35:00;;;;;;;;;;;22.60;99.90;;;;;;5028032;28;19906;-76
2023/09/14 09:37:26;;;;;;;;;;;22.80;99.90;;;;;;5034832;28;19923;-76
2023/09/14 09:39:52;;;;;;;;;;;22.70;99.90;;;;;;5029314;28;19905;-75
2023/09/14 09:42:19;;;;;;;;;;;22.90;99.90;;;;;;5023155;28;19958;-76
2023/09/14 09:44:45;;;;;;;;;;;22.90;99.90;;;;;;5042981;28;19915;-76
2023/09/14 09:47:12;;;;;;;;;;;22.70;99.90;;;;;;5036853;28;19992;-75
2023/09/14 09:49:38;;;;;;;;;;;22.50;99.90;;;;;;5034287;28;20004;-76
2023/09/14 09:52:08;;;;;;;;;;;22.60;99.90;;;;;;5033286;28;19944;-76
2023/09/14 09:54:35;;;;;;;;;;;22.70;99.90;;;;;;5025507;28;20403;-76
2023/09/14 09:57:03;;;;;;;;;;;22.80;99.90;;;;;;5026380;28;21041;-76
2023/09/14 09:59:30;;;;;;;;;;;22.80;99.90;;;;;;5023180;28;19988;-75
2023/09/14 10:01:56;;;;;;;;;;;22.90;99.90;;;;;;5036911;28;19904;-75
2023/09/14 10:04:26;;;;;;;;;;;22.90;99.90;;;;;;5040985;28;19932;-76
2023/09/14 10:06:52;;;;;;;;;;;22.90;99.90;;;;;;5036230;28;19944;-76
2023/09/14 10:09:17;;;;;;;;;;;23.10;99.90;;;;;;5039897;28;20377;-76
2023/09/14 10:11:43;;;;;;;;;;;23.30;99.90;;;;;;5036150;28;19905;-76
2023/09/14 10:14:13;;;;;;;;;;;23.50;99.90;;;;;;5038396;28;20284;-76
2023/09/14 10:16:40;;;;;;;;;;;23.60;99.90;;;;;;5035801;28;19905;-75
2023/09/14 10:19:06;;;;;;;;;;;23.80;99.90;;;;;;5034630;28;19959;-76
2023/09/14 10:21:32;;;;;;;;;;;23.90;99.90;;;;;;5032741;28;19905;-75
2023/09/14 10:23:58;;;;;;;;;;;24.00;99.90;;;;;;5034703;28;19913;-76
2023/09/14 10:26:24;;;;;;;;;;;24.10;99.90;;;;;;5026107;28;19910;-75
2023/09/14 10:28:50;;;;;;;;;;;24.10;99.90;;;;;;5024040;28;19909;-75
2023/09/14 10:31:16;;;;;;;;;;;24.00;99.90;;;;;;5025996;28;19909;-75
2023/09/14 10:33:45;;;;;;;;;;;24.10;99.90;;;;;;5023640;28;19905;-75
2023/09/14 10:36:11;;;;;;;;;;;24.00;99.90;;;;;;5026681;28;19932;-75
2023/09/14 10:38:42;;;;;;;;;;;24.00;99.90;;;;;;5032609;28;19909;-75
2023/09/14 10:41:08;;;;;;;;;;;24.20;99.90;;;;;;5026601;28;19955;-75
2023/09/14 10:43:33;;;;;;;;;;;24.20;99.90;;;;;;5030852;28;19909;-75
2023/09/14 10:46:01;;;;;;;;;;;24.20;99.90;;;;;;5040414;28;19909;-75
2023/09/14 10:48:30;;;;;;;;;;;24.30;99.90;;;;;;5039757;28;19916;-75
2023/09/14 10:50:57;;;;;;;;;;;24.40;99.90;;;;;;5039038;28;19971;-75
2023/09/14 10:53:23;;;;;;;;;;;24.60;99.90;;;;;;5037001;28;20373;-74
2023/09/14 10:55:48;;;;;;;;;;;24.60;99.90;;;;;;5036352;28;20323;-75
2023/09/14 10:58:16;;;;;;;;;;;24.80;99.90;;;;;;5041426;28;19912;-75
2023/09/14 11:00:42;;;;;;;;;;;24.80;99.90;;;;;;5040860;28;20405;-75
2023/09/14 11:03:09;;;;;;;;;;;24.90;99.90;;;;;;5041920;28;19905;-76
2023/09/14 11:05:47;;;;;;;;;;;25.00;99.90;;;;;;5036041;28;19909;-74
2023/09/14 11:08:14;;;;;;;;;;;24.80;99.90;;;;;;5034692;28;19913;-74
2023/09/14 11:11:12;;;;;;;;;;;24.80;99.90;;;;;;5030002;28;19908;-74
2023/09/14 11:13:38;;;;;;;;;;;24.70;99.90;;;;;;5028838;28;20287;-74
2023/09/14 11:16:05;;;;;;;;;;;24.40;99.90;;;;;;5034698;28;19987;-73
2023/09/14 11:18:35;;;;;;;;;;;24.30;99.90;;;;;;5033138;28;19916;-74
2023/09/14 11:21:00;;;;;;;;;;;24.20;99.90;;;;;;5034441;28;20296;-73
2023/09/14 11:23:34;;;;;;;;;;;24.30;99.90;;;;;;5021839;28;19905;-74
2023/09/14 11:25:59;;;;;;;;;;;24.40;99.90;;;;;;5020187;28;20016;-74
2023/09/14 11:28:25;;;;;;;;;;;24.50;99.90;;;;;;5019333;28;19945;-74
2023/09/14 11:30:51;;;;;;;;;;;24.60;99.90;;;;;;5030157;28;19913;-75
2023/09/14 11:33:16;;;;;;;;;;;24.80;99.90;;;;;;5036761;28;19959;-75
2023/09/14 11:35:46;;;;;;;;;;;25.10;99.90;;;;;;5037371;28;19913;-75
2023/09/14 11:38:16;;;;;;;;;;;25.20;99.90;;;;;;5049221;28;19916;-75
2023/09/14 11:40:42;;;;;;;;;;;25.40;99.90;;;;;;5025096;28;19905;-75
2023/09/14 11:43:07;;;;;;;;;;;25.40;99.90;;;;;;5024239;28;19913;-75
2023/09/14 11:45:38;;;;;;;;;;;25.10;99.90;;;;;;5039555;28;20274;-74
2023/09/14 11:48:12;;;;;;;;;;;25.10;99.90;;;;;;5024599;28;19913;-74
2023/09/14 11:50:39;;;;;;;;;;;25.20;99.90;;;;;;5037103;28;19909;-74
2023/09/14 11:53:07;;;;;;;;;;;25.40;99.90;;;;;;5037285;28;19928;-76
2023/09/14 11:55:33;;;;;;;;;;;25.30;99.90;;;;;;5030913;28;19941;-76
2023/09/14 11:57:58;;;;;;;;;;;25.50;99.90;;;;;;5034148;28;19909;-74
2023/09/14 12:00:24;;;;;;;;;;;25.60;99.90;;;;;;5032512;28;19905;-75
2023/09/14 12:02:49;;;;;;;;;;;25.40;99.90;;;;;;5035391;28;19905;-76
2023/09/14 12:05:15;;;;;;;;;;;25.40;99.90;;;;;;5031409;28;20383;-75
2023/09/14 12:07:41;;;;;;;;;;;25.50;99.90;;;;;;5020862;28;20349;-75
2023/09/14 12:10:16;;;;;;;;;;;25.60;99.90;;;;;;5024757;28;19909;-75
2023/09/14 12:12:41;;;;;;;;;;;25.60;99.90;;;;;;5021334;28;19910;-75
2023/09/14 12:15:16;;;;;;;;;;;25.80;99.90;;;;;;5022966;28;20332;-75
2023/09/14 12:17:41;;;;;;;;;;;25.90;99.90;;;;;;5035585;28;20409;-75
2023/09/14 12:20:11;;;;;;;;;;;25.90;99.90;;;;;;5030101;28;19984;-73
2023/09/14 12:22:37;;;;;;;;;;;25.70;99.90;;;;;;5030587;28;19909;-74
2023/09/14 12:25:03;;;;;;;;;;;25.60;99.90;;;;;;5034773;28;20036;-74
2023/09/14 12:27:29;;;;;;;;;;;25.70;99.90;;;;;;5034593;28;19909;-74
2023/09/14 12:29:56;;;;;;;;;;;25.70;99.90;;;;;;5050856;28;20000;-74
2023/09/14 12:32:22;;;;;;;;;;;25.90;99.90;;;;;;5051454;28;20027;-74
2023/09/14 12:34:48;;;;;;;;;;;26.00;99.90;;;;;;5026834;28;19905;-74
2023/09/14 12:37:17;;;;;;;;;;;26.00;99.90;;;;;;5035416;28;19963;-74
2023/09/14 12:39:48;;;;;;;;;;;26.00;99.90;;;;;;5032538;28;19909;-75
2023/09/14 12:42:16;;;;;;;;;;;25.90;99.90;;;;;;5032522;28;19951;-75
2023/09/14 12:44:42;;;;;;;;;;;25.90;99.90;;;;;;5028794;28;19913;-73
2023/09/14 12:47:08;;;;;;;;;;;25.90;99.90;;;;;;5035819;28;19920;-75
2023/09/14 12:49:34;;;;;;;;;;;25.90;99.90;;;;;;5045187;28;19912;-75
2023/09/14 12:52:03;;;;;;;;;;;25.80;99.90;;;;;;5029971;28;19909;-74
2023/09/14 12:54:29;;;;;;;;;;;25.60;99.90;;;;;;5025264;28;19909;-74
2023/09/14 12:56:54;;;;;;;;;;;25.30;99.90;;;;;;5032630;28;19968;-74
2023/09/14 12:59:20;;;;;;;;;;;25.30;99.90;;;;;;5034103;28;20334;-74
2023/09/14 13:01:46;;;;;;;;;;;25.40;99.90;;;;;;5035590;28;19912;-74
2023/09/14 13:04:11;;;;;;;;;;;25.80;99.90;;;;;;5032994;28;19913;-74
2023/09/14 13:06:37;;;;;;;;;;;26.00;99.90;;;;;;5034249;28;19912;-75
2023/09/14 13:09:07;;;;;;;;;;;26.30;99.90;;;;;;5035157;28;19959;-76
2023/09/14 13:11:34;;;;;;;;;;;26.50;99.90;;;;;;5034068;28;19912;-76
2023/09/14 13:14:00;;;;;;;;;;;26.70;99.90;;;;;;5033059;28;19913;-77
2023/09/14 13:16:27;;;;;;;;;;;26.80;99.90;;;;;;5031753;28;19951;-75
2023/09/14 13:18:53;;;;;;;;;;;26.90;99.90;;;;;;5033796;28;19959;-76
2023/09/14 13:21:19;;;;;;;;;;;26.80;99.90;;;;;;5034002;28;20197;-78
2023/09/14 13:23:45;;;;;;;;;;;27.00;99.90;;;;;;5033190;28;19905;-79
2023/09/14 13:26:11;;;;;;;;;;;27.30;99.90;;;;;;5050207;28;19916;-78
2023/09/14 13:28:36;;;;;;;;;;;27.40;99.90;;;;;;5033782;28;20280;-76
2023/09/14 13:31:03;;;;;;;;;;;27.30;99.90;;;;;;5031823;28;21219;-76
2023/09/14 13:33:28;;;;;;;;;;;27.20;99.90;;;;;;5035520;28;19955;-77
2023/09/14 13:35:56;;;;;;;;;;;26.90;99.90;;;;;;5031423;28;19929;-74
2023/09/14 13:38:21;;;;;;;;;;;26.60;99.90;;;;;;5034669;28;19915;-76
2023/09/14 13:40:47;;;;;;;;;;;26.40;99.90;;;;;;5035019;28;19912;-73
2023/09/14 13:43:13;;;;;;;;;;;26.50;99.90;;;;;;5031614;28;19913;-76
2023/09/14 13:45:39;;;;;;;;;;;26.70;99.90;;;;;;5033161;28;19909;-75
2023/09/14 13:48:04;;;;;;;;;;;26.80;99.90;;;;;;5030738;28;19913;-76
2023/09/14 13:50:30;;;;;;;;;;;27.00;99.90;;;;;;5031128;28;19952;-74
2023/09/14 13:52:56;;;;;;;;;;;26.80;99.90;;;;;;5029920;28;19905;-76
2023/09/14 13:55:22;;;;;;;;;;;26.80;99.90;;;;;;5030194;28;19955;-75
2023/09/14 13:57:47;;;;;;;;;;;26.90;99.90;;;;;;5016886;28;19964;-76
2023/09/14 14:00:14;;;;;;;;;;;26.90;99.90;;;;;;5028709;28;19920;-75
2023/09/14 14:02:40;;;;;;;;;;;27.00;99.90;;;;;;5017044;28;19910;-75
2023/09/14 14:05:07;;;;;;;;;;;27.20;99.90;;;;;;5029040;28;19909;-76
2023/09/14 14:07:32;;;;;;;;;;;27.40;99.90;;;;;;5015657;28;19920;-75
2023/09/14 14:09:58;;;;;;;;;;;27.40;99.90;;;;;;5027453;28;19905;-76
2023/09/14 14:12:23;;;;;;;;;;;27.50;99.90;;;;;;5027426;28;19992;-75